^^
Your Local Weather - Clay, NY Station Historical Data
Daily Summary for May 7, 2017 Units:  English    Metric   Both
« Previous Day
Next Day »
Daily Weekly Monthly Yearly Custom
  High: Low: Average:
Temperature: 44.6 °F 38.5 °F 41.5 °F
Dew Point: 42.3 °F 34.7 °F 37.6 °F
Humidity: 93% 76% 86%
Wind Speed: 4.0mph 0.0mph 1.8mph
Wind Gust: 8.0mph - -
Wind- - North
Pressure: 29.78 in 29.39 in -
Precipitation: 0.13 in    
Historical Graphs
 
 
Tabular Data for May 7, 2017
Time Temperature Dew Point Pressure Wind Wind Speed Wind Gust Humidity Rainfall Rate (Hourly) solar
00:02 44.6 °F 42.1 °F 29.39 in SW 2.0 mph 2.0 mph 91% 0.00 in 0 W/m2
00:08 44.5 °F 42.3 °F 29.39 in SSW 2.0 mph 5.0 mph 92% 0.00 in 0 W/m2
00:14 44.4 °F 42.2 °F 29.39 in WSW 2.0 mph 2.0 mph 92% 0.00 in 0 W/m2
00:20 44.4 °F 42.2 °F 29.39 in SSW 2.0 mph 2.0 mph 92% 0.00 in 0 W/m2
00:26 44.4 °F 42.2 °F 29.39 in WSW 2.0 mph 5.0 mph 92% 0.00 in 0 W/m2
00:32 44.4 °F 42.2 °F 29.39 in WSW 2.0 mph 3.0 mph 92% 0.00 in 0 W/m2
00:38 44.3 °F 42.1 °F 29.39 in SW 2.0 mph 3.0 mph 92% 0.00 in 0 W/m2
00:44 44.3 °F 42.1 °F 29.39 in WSW 2.0 mph 5.0 mph 92% 0.00 in 0 W/m2
00:50 44.2 °F 42.0 °F 29.39 in SW 2.0 mph 2.0 mph 92% 0.00 in 0 W/m2
00:56 44.1 °F 41.9 °F 29.39 in West 2.0 mph 2.0 mph 92% 0.00 in 0 W/m2
01:02 44.0 °F 41.8 °F 29.39 in West 2.0 mph 2.0 mph 92% 0.00 in 0 W/m2
01:08 44.0 °F 41.8 °F 29.39 in SW 2.0 mph 6.0 mph 92% 0.00 in 0 W/m2
01:14 44.0 °F 41.8 °F 29.39 in SW 2.0 mph 3.0 mph 92% 0.00 in 0 W/m2
01:20 44.0 °F 41.8 °F 29.39 in WSW 2.0 mph 2.0 mph 92% 0.00 in 0 W/m2
01:26 43.9 °F 42.0 °F 29.39 in SW 3.0 mph 8.0 mph 93% 0.00 in 0 W/m2
01:32 43.9 °F 42.0 °F 29.39 in WSW 2.0 mph 3.0 mph 93% 0.00 in 0 W/m2
01:38 43.9 °F 42.0 °F 29.39 in West 2.0 mph 3.0 mph 93% 0.00 in 0 W/m2
01:44 43.8 °F 41.9 °F 29.39 in SW 2.0 mph 5.0 mph 93% 0.00 in 0 W/m2
01:50 43.7 °F 41.8 °F 29.39 in SSW 2.0 mph 6.0 mph 93% 0.00 in 0 W/m2
01:56 43.6 °F 41.7 °F 29.39 in SSW 3.0 mph 6.0 mph 93% 0.00 in 0 W/m2
02:02 43.6 °F 41.7 °F 29.39 in SW 3.0 mph 8.0 mph 93% 0.00 in 0 W/m2
02:08 43.5 °F 41.6 °F 29.39 in West 3.0 mph 8.0 mph 93% 0.00 in 0 W/m2
02:14 43.4 °F 41.5 °F 29.39 in SSW 2.0 mph 2.0 mph 93% 0.00 in 0 W/m2
02:20 43.4 °F 41.5 °F 29.40 in SW 2.0 mph 3.0 mph 93% 0.00 in 0 W/m2
02:26 43.4 °F 41.5 °F 29.40 in SW 3.0 mph 7.0 mph 93% 0.00 in 0 W/m2
02:32 43.4 °F 41.5 °F 29.40 in West 3.0 mph 3.0 mph 93% 0.00 in 0 W/m2
02:38 43.4 °F 41.5 °F 29.40 in SW 2.0 mph 5.0 mph 93% 0.00 in 0 W/m2
02:44 43.4 °F 41.5 °F 29.40 in WSW 2.0 mph 2.0 mph 93% 0.00 in 0 W/m2
02:50 43.4 °F 41.5 °F 29.40 in WSW 2.0 mph 3.0 mph 93% 0.00 in 0 W/m2
02:56 43.3 °F 41.4 °F 29.40 in SW 3.0 mph 3.0 mph 93% 0.00 in 0 W/m2
03:02 43.3 °F 41.4 °F 29.40 in South 3.0 mph 5.0 mph 93% 0.00 in 0 W/m2
03:08 43.2 °F 41.3 °F 29.40 in WSW 4.0 mph 5.0 mph 93% 0.00 in 0 W/m2
03:14 43.3 °F 41.4 °F 29.40 in SW 3.0 mph 4.0 mph 93% 0.00 in 0 W/m2
03:20 43.2 °F 41.3 °F 29.41 in WSW 2.0 mph 6.0 mph 93% 0.04 in 0 W/m2
03:26 43.2 °F 41.3 °F 29.41 in SSW 2.0 mph 6.0 mph 93% 0.04 in 0 W/m2
03:32 43.2 °F 41.3 °F 29.41 in WSW 1.0 mph 6.0 mph 93% 0.04 in 0 W/m2
03:38 43.1 °F 41.2 °F 29.41 in NW 1.0 mph 6.0 mph 93% 0.04 in 0 W/m2
03:44 43.1 °F 41.2 °F 29.42 in WSW 1.0 mph 2.0 mph 93% 0.04 in 0 W/m2
03:50 42.9 °F 41.0 °F 29.42 in WSW 1.0 mph 1.0 mph 93% 0.00 in 0 W/m2
03:56 42.8 °F 40.9 °F 29.42 in WNW 1.0 mph 4.0 mph 93% 0.00 in 0 W/m2
04:02 42.7 °F 40.8 °F 29.42 in WNW 1.0 mph 1.0 mph 93% 0.00 in 0 W/m2
04:08 42.6 °F 40.7 °F 29.43 in SW 1.0 mph 2.0 mph 93% 0.00 in 0 W/m2
04:14 42.5 °F 40.6 °F 29.43 in WNW 1.0 mph 2.0 mph 93% 0.00 in 0 W/m2
04:20 42.5 °F 40.6 °F 29.43 in WSW 1.0 mph 1.0 mph 93% 0.00 in 0 W/m2
04:26 42.4 °F 40.5 °F 29.43 in WSW 2.0 mph 6.0 mph 93% 0.00 in 0 W/m2
04:32 42.2 °F 40.3 °F 29.43 in WSW 2.0 mph 3.0 mph 93% 0.00 in 0 W/m2
04:38 42.1 °F 40.2 °F 29.44 in WSW 2.0 mph 5.0 mph 93% 0.00 in 0 W/m2
04:44 42.1 °F 40.2 °F 29.44 in West 1.0 mph 3.0 mph 93% 0.00 in 0 W/m2
04:50 41.9 °F 40.0 °F 29.44 in WSW 1.0 mph 3.0 mph 93% 0.00 in 0 W/m2
04:56 41.7 °F 39.8 °F 29.45 in West 1.0 mph 3.0 mph 93% 0.00 in 0 W/m2
05:02 41.6 °F 39.7 °F 29.45 in West 1.0 mph 2.0 mph 93% 0.00 in 0 W/m2
05:08 41.6 °F 39.7 °F 29.45 in SW 1.0 mph 4.0 mph 93% 0.00 in 0 W/m2
05:14 41.5 °F 39.6 °F 29.46 in NW 2.0 mph 3.0 mph 93% 0.00 in 0 W/m2
05:20 41.3 °F 39.4 °F 29.46 in West 2.0 mph 3.0 mph 93% 0.00 in 0 W/m2
05:26 41.2 °F 39.3 °F 29.46 in WSW 2.0 mph 5.0 mph 93% 0.00 in 0 W/m2
05:32 41.0 °F 39.1 °F 29.46 in WNW 2.0 mph 4.0 mph 93% 0.00 in 0 W/m2
05:38 40.7 °F 38.6 °F 29.46 in WSW 2.0 mph 5.0 mph 92% 0.00 in 0 W/m2
05:44 40.5 °F 38.4 °F 29.47 in WSW 2.0 mph 4.0 mph 92% 0.00 in 0 W/m2
05:50 40.4 °F 38.3 °F 29.47 in WSW 2.0 mph 2.0 mph 92% 0.00 in 0 W/m2
05:56 40.3 °F 38.2 °F 29.48 in WNW 2.0 mph 3.0 mph 92% 0.00 in 0 W/m2
06:02 40.3 °F 38.2 °F 29.48 in WNW 1.0 mph 2.0 mph 92% 0.00 in 0 W/m2
06:08 40.2 °F 38.1 °F 29.48 in West 1.0 mph 2.0 mph 92% 0.00 in 5 W/m2
06:14 40.2 °F 38.1 °F 29.48 in West 1.0 mph 1.0 mph 92% 0.00 in 9 W/m2
06:20 40.2 °F 38.1 °F 29.49 in Calm   1.0 mph 92% 0.00 in 14 W/m2
06:26 39.9 °F 37.8 °F 29.49 in SW 1.0 mph 2.0 mph 92% 0.00 in 18 W/m2
06:32 39.7 °F 37.6 °F 29.50 in WNW 2.0 mph 2.0 mph 92% 0.00 in 21 W/m2
06:38 39.7 °F 37.3 °F 29.50 in WSW 2.0 mph 2.0 mph 91% 0.00 in 26 W/m2
06:44 39.7 °F 37.3 °F 29.51 in WSW 2.0 mph 2.0 mph 91% 0.00 in 35 W/m2
06:50 39.7 °F 37.3 °F 29.51 in WSW 1.0 mph 2.0 mph 91% 0.00 in 46 W/m2
06:56 39.7 °F 37.3 °F 29.51 in WNW 1.0 mph 3.0 mph 91% 0.00 in 49 W/m2
07:02 39.6 °F 37.2 °F 29.51 in WSW 2.0 mph 2.0 mph 91% 0.00 in 65 W/m2
07:08 39.7 °F 37.3 °F 29.52 in WSW 2.0 mph 5.0 mph 91% 0.00 in 62 W/m2
07:14 39.6 °F 37.2 °F 29.52 in WNW 2.0 mph 3.0 mph 91% 0.00 in 63 W/m2
07:20 39.6 °F 37.2 °F 29.52 in WSW 1.0 mph 1.0 mph 91% 0.00 in 56 W/m2
07:26 39.7 °F 37.3 °F 29.53 in NW 1.0 mph 1.0 mph 91% 0.00 in 63 W/m2
07:32 39.8 °F 37.4 °F 29.53 in West 1.0 mph 1.0 mph 91% 0.00 in 74 W/m2
07:38 39.9 °F 37.5 °F 29.53 in NW 1.0 mph 1.0 mph 91% 0.00 in 74 W/m2
07:44 40.0 °F 37.6 °F 29.53 in SW 1.0 mph 3.0 mph 91% 0.00 in 90 W/m2
07:50 39.9 °F 37.5 °F 29.53 in SW 1.0 mph 1.0 mph 91% 0.00 in 77 W/m2
07:56 40.0 °F 37.3 °F 29.53 in NNW 1.0 mph 2.0 mph 90% 0.00 in 88 W/m2
08:02 40.1 °F 37.4 °F 29.54 in SW 1.0 mph 2.0 mph 90% 0.00 in 91 W/m2
08:08 40.1 °F 37.4 °F 29.54 in WSW 1.0 mph 4.0 mph 90% 0.00 in 165 W/m2
08:14 40.5 °F 38.1 °F 29.54 in Calm   1.0 mph 91% 0.00 in 139 W/m2
08:20 40.5 °F 37.8 °F 29.54 in WSW 1.0 mph 3.0 mph 90% 0.00 in 125 W/m2
08:26 40.4 °F 37.7 °F 29.55 in WNW 2.0 mph 3.0 mph 90% 0.00 in 105 W/m2
08:32 40.5 °F 37.8 °F 29.55 in WNW 2.0 mph 2.0 mph 90% 0.00 in 162 W/m2
08:38 40.6 °F 37.9 °F 29.56 in NW 2.0 mph 4.0 mph 90% 0.00 in 162 W/m2
08:44 40.9 °F 38.2 °F 29.56 in NNW 2.0 mph 4.0 mph 90% 0.00 in 167 W/m2
08:50 40.8 °F 37.8 °F 29.56 in NW 2.0 mph 2.0 mph 89% 0.00 in 155 W/m2
08:56 40.8 °F 37.8 °F 29.57 in WSW 2.0 mph 7.0 mph 89% 0.00 in 139 W/m2
09:02 40.8 °F 37.5 °F 29.57 in WNW 1.0 mph 2.0 mph 88% 0.00 in 171 W/m2
09:06 40.7 °F 37.4 °F 29.57 in SW 2.0 mph 3.0 mph 88% 0.00 in 172 W/m2
09:12 40.6 °F 37.0 °F 29.57 in WNW 3.0 mph 3.0 mph 87% 0.00 in 200 W/m2
09:18 40.5 °F 36.6 °F 29.58 in West 3.0 mph 3.0 mph 86% 0.00 in 135 W/m2
09:24 40.4 °F 36.8 °F 29.58 in NW 2.0 mph 3.0 mph 87% 0.00 in 116 W/m2
09:30 40.2 °F 36.6 °F 29.58 in NW 1.0 mph 1.0 mph 87% 0.00 in 155 W/m2
09:36 40.2 °F 36.9 °F 29.59 in West 1.0 mph 5.0 mph 88% 0.00 in 193 W/m2
09:42 40.3 °F 37.3 °F 29.59 in West 1.0 mph 1.0 mph 89% 0.00 in 188 W/m2
09:48 40.2 °F 37.2 °F 29.59 in West 1.0 mph 3.0 mph 89% 0.00 in 109 W/m2
09:54 39.9 °F 36.9 °F 29.59 in WNW 2.0 mph 3.0 mph 89% 0.00 in 107 W/m2
10:00 39.7 °F 36.7 °F 29.60 in WNW 3.0 mph 3.0 mph 89% 0.00 in 151 W/m2
10:06 39.8 °F 36.8 °F 29.60 in WSW 2.0 mph 3.0 mph 89% 0.00 in 301 W/m2
10:12 40.3 °F 37.3 °F 29.60 in West 2.0 mph 2.0 mph 89% 0.00 in 292 W/m2
10:18 40.9 °F 37.9 °F 29.60 in WNW 2.0 mph 3.0 mph 89% 0.00 in 302 W/m2
10:24 41.0 °F 37.7 °F 29.60 in West 2.0 mph 3.0 mph 88% 0.00 in 332 W/m2
10:30 41.6 °F 38.3 °F 29.60 in WSW 2.0 mph 2.0 mph 88% 0.00 in 413 W/m2
10:36 42.4 °F 39.1 °F 29.60 in NW 1.0 mph 3.0 mph 88% 0.00 in 418 W/m2
10:42 42.3 °F 38.1 °F 29.60 in WNW 2.0 mph 8.0 mph 85% 0.00 in 287 W/m2
10:48 42.1 °F 37.9 °F 29.61 in North 2.0 mph 8.0 mph 85% 0.00 in 301 W/m2
10:56 42.6 °F 38.1 °F 29.61 in NW 2.0 mph 3.0 mph 84% 0.00 in 313 W/m2
11:02 42.0 °F 37.2 °F 29.61 in WSW 3.0 mph 4.0 mph 83% 0.00 in 206 W/m2
11:08 41.6 °F 36.8 °F 29.61 in NW 3.0 mph 5.0 mph 83% 0.00 in 301 W/m2
11:14 42.0 °F 37.8 °F 29.61 in North 3.0 mph 4.0 mph 85% 0.00 in 227 W/m2
11:56 43.2 °F 37.8 °F 29.62 in NW 3.0 mph 6.0 mph 81% 0.00 in 232 W/m2
12:02 41.7 °F 36.9 °F 29.63 in NNW 4.0 mph 5.0 mph 83% 0.00 in 313 W/m2
12:08 41.6 °F 37.7 °F 29.62 in NW 3.0 mph 5.0 mph 86% 0.00 in 390 W/m2
12:14 42.4 °F 38.5 °F 29.62 in NW 2.0 mph 3.0 mph 86% 0.00 in 522 W/m2
12:20 42.8 °F 38.0 °F 29.63 in WNW 3.0 mph 3.0 mph 83% 0.00 in 204 W/m2
12:26 42.3 °F 37.5 °F 29.63 in WNW 3.0 mph 4.0 mph 83% 0.00 in 167 W/m2
12:32 41.6 °F 36.5 °F 29.63 in NW 3.0 mph 4.0 mph 82% 0.00 in 255 W/m2
12:38 41.7 °F 36.3 °F 29.64 in West 3.0 mph 4.0 mph 81% 0.00 in 285 W/m2
12:44 42.2 °F 37.1 °F 29.64 in NW 2.0 mph 4.0 mph 82% 0.00 in 218 W/m2
12:50 42.2 °F 36.5 °F 29.64 in WNW 2.0 mph 3.0 mph 80% 0.00 in 323 W/m2
12:56 42.3 °F 36.9 °F 29.64 in NW 3.0 mph 5.0 mph 81% 0.00 in 278 W/m2
13:02 42.1 °F 36.4 °F 29.65 in NW 2.0 mph 3.0 mph 80% 0.00 in 130 W/m2
13:08 41.6 °F 36.5 °F 29.65 in WNW 2.0 mph 3.0 mph 82% 0.00 in 292 W/m2
13:14 41.7 °F 37.2 °F 29.65 in WSW 1.0 mph 4.0 mph 84% 0.00 in 327 W/m2
13:20 42.1 °F 37.3 °F 29.65 in SW 2.0 mph 3.0 mph 83% 0.00 in 206 W/m2
13:26 42.1 °F 37.0 °F 29.65 in WSW 2.0 mph 6.0 mph 82% 0.00 in 146 W/m2
13:32 42.0 °F 36.3 °F 29.65 in NNW 2.0 mph 4.0 mph 80% 0.00 in 128 W/m2
13:38 41.9 °F 35.5 °F 29.65 in WSW 2.0 mph 4.0 mph 78% 0.00 in 120 W/m2
13:44 41.7 °F 35.7 °F 29.66 in NW 3.0 mph 3.0 mph 79% 0.00 in 142 W/m2
13:50 41.5 °F 35.5 °F 29.66 in NW 3.0 mph 4.0 mph 79% 0.00 in 169 W/m2
13:56 41.3 °F 35.3 °F 29.67 in West 4.0 mph 4.0 mph 79% 0.00 in 156 W/m2
14:02 41.1 °F 35.7 °F 29.67 in NW 3.0 mph 3.0 mph 81% 0.00 in 172 W/m2
14:08 41.2 °F 36.1 °F 29.67 in West 2.0 mph 3.0 mph 82% 0.00 in 213 W/m2
14:14 41.5 °F 36.4 °F 29.67 in NW 2.0 mph 2.0 mph 82% 0.00 in 195 W/m2
14:20 41.7 °F 36.3 °F 29.67 in NNW 1.0 mph 1.0 mph 81% 0.00 in 162 W/m2
14:26 41.4 °F 35.4 °F 29.67 in NW 3.0 mph 4.0 mph 79% 0.00 in 151 W/m2
14:32 40.9 °F 35.5 °F 29.67 in WNW 4.0 mph 4.0 mph 81% 0.00 in 211 W/m2
14:38 40.4 °F 35.3 °F 29.68 in WNW 4.0 mph 5.0 mph 82% 0.00 in 120 W/m2
14:44 40.4 °F 35.6 °F 29.68 in WSW 3.0 mph 4.0 mph 83% 0.00 in 193 W/m2
14:50 40.9 °F 36.1 °F 29.68 in NW 1.0 mph 1.0 mph 83% 0.00 in 274 W/m2
14:56 41.3 °F 35.3 °F 29.67 in NW 2.0 mph 4.0 mph 79% 0.00 in 272 W/m2
15:02 41.7 °F 35.3 °F 29.68 in NW 3.0 mph 4.0 mph 78% 0.00 in 163 W/m2
15:08 41.7 °F 35.7 °F 29.68 in NW 2.0 mph 4.0 mph 79% 0.00 in 135 W/m2
15:14 41.6 °F 35.6 °F 29.68 in WSW 2.0 mph 2.0 mph 79% 0.00 in 130 W/m2
15:20 41.5 °F 35.8 °F 29.68 in NW 1.0 mph 6.0 mph 80% 0.00 in 167 W/m2
15:26 41.6 °F 35.9 °F 29.68 in NW 1.0 mph 6.0 mph 80% 0.00 in 163 W/m2
15:32 41.6 °F 35.6 °F 29.69 in NW 2.0 mph 2.0 mph 79% 0.00 in 172 W/m2
15:38 41.7 °F 35.7 °F 29.69 in NW 2.0 mph 3.0 mph 79% 0.00 in 290 W/m2
15:44 41.7 °F 35.7 °F 29.69 in NW 2.0 mph 2.0 mph 79% 0.00 in 137 W/m2
15:50 41.4 °F 35.1 °F 29.69 in NW 3.0 mph 3.0 mph 78% 0.00 in 144 W/m2
15:56 41.3 °F 35.3 °F 29.69 in WNW 3.0 mph 4.0 mph 79% 0.00 in 197 W/m2
16:02 41.2 °F 35.5 °F 29.69 in WNW 3.0 mph 6.0 mph 80% 0.00 in 213 W/m2
16:08 41.4 °F 35.4 °F 29.69 in WNW 3.0 mph 6.0 mph 79% 0.00 in 192 W/m2
16:14 41.6 °F 35.6 °F 29.69 in NW 3.0 mph 3.0 mph 79% 0.00 in 134 W/m2
16:20 41.6 °F 35.2 °F 29.69 in West 2.0 mph 2.0 mph 78% 0.00 in 100 W/m2
16:26 41.4 °F 35.1 °F 29.69 in SW 2.0 mph 5.0 mph 78% 0.00 in 121 W/m2
16:32 41.6 °F 35.6 °F 29.69 in WNW 1.0 mph 2.0 mph 79% 0.00 in 127 W/m2
16:38 41.5 °F 35.2 °F 29.69 in West 2.0 mph 2.0 mph 78% 0.00 in 123 W/m2
16:44 41.4 °F 35.1 °F 29.69 in NW 2.0 mph 2.0 mph 78% 0.00 in 79 W/m2
16:50 41.6 °F 35.6 °F 29.70 in WNW 1.0 mph 1.0 mph 79% 0.00 in 74 W/m2
16:56 41.5 °F 35.2 °F 29.70 in West 1.0 mph 2.0 mph 78% 0.00 in 79 W/m2
17:02 41.5 °F 34.8 °F 29.70 in West 2.0 mph 5.0 mph 77% 0.00 in 102 W/m2
17:08 41.5 °F 35.2 °F 29.70 in WNW 3.0 mph 5.0 mph 78% 0.00 in 100 W/m2
17:14 41.6 °F 34.9 °F 29.70 in West 3.0 mph 3.0 mph 77% 0.00 in 88 W/m2
17:20 41.6 °F 34.9 °F 29.70 in WNW 3.0 mph 5.0 mph 77% 0.00 in 88 W/m2
17:26 41.7 °F 34.7 °F 29.70 in NW 2.0 mph 5.0 mph 76% 0.00 in 102 W/m2
17:32 41.7 °F 35.0 °F 29.70 in NW 2.0 mph 3.0 mph 77% 0.00 in 125 W/m2
17:38 41.6 °F 35.2 °F 29.70 in WNW 3.0 mph 7.0 mph 78% 0.00 in 113 W/m2
17:44 41.6 °F 35.2 °F 29.71 in West 3.0 mph 4.0 mph 78% 0.00 in 151 W/m2
17:50 41.7 °F 35.7 °F 29.71 in NW 2.0 mph 2.0 mph 79% 0.00 in 134 W/m2
17:56 41.8 °F 35.4 °F 29.71 in West 2.0 mph 6.0 mph 78% 0.00 in 109 W/m2
18:02 41.7 °F 35.3 °F 29.72 in WNW 2.0 mph 2.0 mph 78% 0.00 in 77 W/m2
18:08 41.5 °F 35.2 °F 29.72 in WNW 3.0 mph 3.0 mph 78% 0.00 in 86 W/m2
18:14 41.5 °F 35.5 °F 29.72 in NW 2.0 mph 3.0 mph 79% 0.00 in 81 W/m2
18:20 41.5 °F 35.8 °F 29.72 in NW 1.0 mph 3.0 mph 80% 0.00 in 69 W/m2
18:26 41.5 °F 35.8 °F 29.72 in NW 1.0 mph 3.0 mph 80% 0.00 in 62 W/m2
18:32 41.4 °F 35.7 °F 29.72 in NW 2.0 mph 2.0 mph 80% 0.00 in 67 W/m2
18:38 41.3 °F 35.9 °F 29.72 in NW 1.0 mph 2.0 mph 81% 0.00 in 60 W/m2
18:44 41.3 °F 35.9 °F 29.72 in NW 2.0 mph 3.0 mph 81% 0.00 in 53 W/m2
18:50 41.3 °F 35.6 °F 29.73 in West 1.0 mph 2.0 mph 80% 0.00 in 46 W/m2
18:56 41.2 °F 35.5 °F 29.73 in NW 1.0 mph 3.0 mph 80% 0.00 in 40 W/m2
19:02 41.2 °F 35.5 °F 29.73 in WSW 1.0 mph 1.0 mph 80% 0.00 in 35 W/m2
19:08 41.3 °F 35.6 °F 29.73 in NW 1.0 mph 1.0 mph 80% 0.00 in 37 W/m2
19:14 41.4 °F 35.7 °F 29.73 in NW 1.0 mph 1.0 mph 80% 0.00 in 37 W/m2
19:20 41.4 °F 35.7 °F 29.73 in WSW 1.0 mph 1.0 mph 80% 0.00 in 42 W/m2
19:26 41.4 °F 36.0 °F 29.74 in NW 1.0 mph 1.0 mph 81% 0.00 in 53 W/m2
19:32 41.5 °F 36.4 °F 29.74 in NW 1.0 mph 1.0 mph 82% 0.00 in 40 W/m2
19:38 41.4 °F 36.0 °F 29.74 in NW 1.0 mph 4.0 mph 81% 0.00 in 25 W/m2
19:44 41.3 °F 35.9 °F 29.75 in WNW 1.0 mph 2.0 mph 81% 0.00 in 14 W/m2
19:50 41.2 °F 35.5 °F 29.75 in NW 1.0 mph 1.0 mph 80% 0.00 in 9 W/m2
19:56 41.2 °F 35.5 °F 29.75 in NW 1.0 mph 2.0 mph 80% 0.00 in 5 W/m2
20:02 41.1 °F 35.4 °F 29.75 in NW 1.0 mph 1.0 mph 80% 0.00 in 0 W/m2
20:08 41.1 °F 35.4 °F 29.75 in NW 1.0 mph 3.0 mph 80% 0.00 in 0 W/m2
20:14 41.1 °F 35.7 °F 29.75 in NNW 1.0 mph 1.0 mph 81% 0.00 in 0 W/m2
20:20 41.1 °F 35.7 °F 29.75 in Calm     81% 0.00 in 0 W/m2
20:26 41.1 °F 35.4 °F 29.75 in NW 1.0 mph 1.0 mph 80% 0.00 in 0 W/m2
20:32 41.1 °F 35.4 °F 29.76 in NW 1.0 mph 2.0 mph 80% 0.00 in 0 W/m2
20:38 41.1 °F 35.4 °F 29.76 in NW 1.0 mph 3.0 mph 80% 0.00 in 0 W/m2
20:46 41.1 °F 35.4 °F 29.76 in NW 1.0 mph 1.0 mph 80% 0.00 in 0 W/m2
20:52 41.1 °F 35.7 °F 29.76 in Calm   1.0 mph 81% 0.00 in 0 W/m2
20:58 41.1 °F 35.7 °F 29.76 in Calm   1.0 mph 81% 0.00 in 0 W/m2
21:04 41.1 °F 35.4 °F 29.76 in WNW 1.0 mph 1.0 mph 80% 0.00 in 0 W/m2
21:10 41.1 °F 35.7 °F 29.77 in WNW 1.0 mph 1.0 mph 81% 0.00 in 0 W/m2
21:16 41.1 °F 35.7 °F 29.77 in WNW 1.0 mph 4.0 mph 81% 0.00 in 0 W/m2
21:22 41.1 °F 35.7 °F 29.77 in WNW 2.0 mph 2.0 mph 81% 0.00 in 0 W/m2
21:28 41.0 °F 35.9 °F 29.77 in NW 2.0 mph 2.0 mph 82% 0.00 in 0 W/m2
21:34 40.8 °F 36.0 °F 29.78 in WNW 1.0 mph 2.0 mph 83% 0.00 in 0 W/m2
21:40 40.7 °F 36.2 °F 29.78 in NW 1.0 mph 2.0 mph 84% 0.00 in 0 W/m2
21:46 40.6 °F 36.4 °F 29.78 in NW 2.0 mph 3.0 mph 85% 0.00 in 0 W/m2
21:52 40.6 °F 36.4 °F 29.78 in NW 1.0 mph 2.0 mph 85% 0.00 in 0 W/m2
21:58 40.5 °F 36.6 °F 29.78 in WNW 1.0 mph 2.0 mph 86% 0.00 in 0 W/m2
22:04 40.4 °F 36.2 °F 29.78 in NW 1.0 mph 2.0 mph 85% 0.00 in 0 W/m2
22:10 40.4 °F 36.5 °F 29.78 in NW 2.0 mph 2.0 mph 86% 0.00 in 0 W/m2
22:16 40.4 °F 36.5 °F 29.78 in WNW 2.0 mph 4.0 mph 86% 0.00 in 0 W/m2
22:22 40.4 °F 36.5 °F 29.78 in WNW 1.0 mph 1.0 mph 86% 0.00 in 0 W/m2
22:28 40.4 °F 36.5 °F 29.78 in NW 1.0 mph 1.0 mph 86% 0.00 in 0 W/m2
22:34 40.4 °F 36.5 °F 29.78 in NW 1.0 mph 6.0 mph 86% 0.00 in 0 W/m2
22:40 40.3 °F 36.4 °F 29.78 in WNW 2.0 mph 2.0 mph 86% 0.00 in 0 W/m2
22:46 40.3 °F 36.7 °F 29.78 in WNW 1.0 mph 3.0 mph 87% 0.00 in 0 W/m2
22:52 39.8 °F 36.2 °F 29.78 in NNW 2.0 mph 5.0 mph 87% 0.00 in 0 W/m2
22:58 39.2 °F 35.7 °F 29.78 in WNW 2.0 mph 5.0 mph 87% 0.00 in 0 W/m2
23:04 38.8 °F 35.6 °F 29.78 in NW 1.0 mph 3.0 mph 88% 0.09 in 0 W/m2
23:10 38.6 °F 35.6 °F 29.78 in NW 1.0 mph 2.0 mph 89% 0.10 in 0 W/m2
23:16 38.5 °F 35.5 °F 29.78 in NW 1.0 mph 2.0 mph 89% 0.06 in 0 W/m2
23:22 38.6 °F 35.6 °F 29.78 in Calm   1.0 mph 89% 0.00 in 0 W/m2
23:28 38.8 °F 36.1 °F 29.78 in NW 1.0 mph 3.0 mph 90% 0.00 in 0 W/m2
23:34 38.9 °F 36.2 °F 29.78 in Calm   1.0 mph 90% 0.00 in 0 W/m2
23:40 39.0 °F 36.3 °F 29.78 in Calm     90% 0.00 in 0 W/m2
23:46 39.1 °F 36.4 °F 29.78 in Calm   1.0 mph 90% 0.00 in 0 W/m2
23:52 39.0 °F 36.3 °F 29.78 in Calm   1.0 mph 90% 0.00 in 0 W/m2
23:58 39.0 °F 36.3 °F 29.78 in Calm   1.0 mph 90% 0.00 in 0 W/m2
Country Meadow, Clay, NY, USA
Compliments of Weather Underground - 2 mb